createdAt,value
2023-09-23T00:00:34.932Z,98412.13
2023-09-23T00:01:40.429Z,98412.57
2023-09-23T00:02:46.329Z,98403.61
2023-09-23T00:03:52.082Z,98407.05
2023-09-23T00:04:57.926Z,98407.75
2023-09-23T00:06:03.375Z,98400.52
2023-09-23T00:07:08.729Z,98409.44
2023-09-23T00:08:14.148Z,98406.74
2023-09-23T00:09:19.639Z,98400.25
2023-09-23T00:10:24.959Z,98414.22
2023-09-23T00:11:30.321Z,98410.79
2023-09-23T00:12:35.652Z,98410.35
2023-09-23T00:13:41.031Z,98410.35
2023-09-23T00:14:46.390Z,98413.98
2023-09-23T00:15:51.836Z,98416.48
2023-09-23T00:16:57.240Z,98411.97
2023-09-23T00:18:02.728Z,98417.83
2023-09-23T00:19:08.096Z,98425.41
2023-09-23T00:20:13.636Z,98418.37
2023-09-23T00:21:18.971Z,98417.92
2023-09-23T00:22:24.356Z,98419.61
2023-09-23T00:23:29.669Z,98416.91
2023-09-23T00:24:35.038Z,98417.02
2023-09-23T00:25:40.376Z,98414.73
2023-09-23T00:26:45.784Z,98405.8
2023-09-23T00:27:51.086Z,98411.39
2023-09-23T00:28:56.518Z,98403.11
2023-09-23T00:30:01.927Z,98409.88
2023-09-23T00:31:07.314Z,98409.73
2023-09-23T00:32:12.772Z,98402.7
2023-09-23T00:33:18.522Z,98400.84
2023-09-23T00:34:23.942Z,98397.72
2023-09-23T00:35:29.282Z,98396.77
2023-09-23T00:36:34.649Z,98399.39
2023-09-23T00:37:40.070Z,98399.91
2023-09-23T00:38:51.558Z,98406.81
2023-09-23T00:39:57.020Z,98395.42
2023-09-23T00:41:02.483Z,98402.36
2023-09-23T00:42:07.982Z,98406.3
2023-09-23T00:43:13.331Z,98403.3
2023-09-23T00:44:18.732Z,98398.31
2023-09-23T00:45:24.185Z,98391.72
2023-09-23T00:46:29.538Z,98395.86
2023-09-23T00:47:34.923Z,98388.08
2023-09-23T00:48:40.301Z,98385.45
2023-09-23T00:49:45.710Z,98378.55
2023-09-23T00:50:51.187Z,98385.78
2023-09-23T00:51:56.524Z,98373.25
2023-09-23T00:53:01.942Z,98379.05
2023-09-23T00:54:07.428Z,98367.66
2023-09-23T00:55:12.778Z,98367.36
2023-09-23T00:56:18.168Z,98365.78
2023-09-23T00:57:23.553Z,98373.25
2023-09-23T00:58:29.206Z,98375.14
2023-09-23T00:59:34.533Z,98367.53
2023-09-23T01:00:39.893Z,98368.88
2023-09-23T01:01:45.417Z,98369.61
2023-09-23T01:02:51.135Z,98365.64
2023-09-23T01:03:56.876Z,98370.23
2023-09-23T01:05:02.409Z,98375.08
2023-09-23T01:06:07.884Z,98374.51
2023-09-23T01:07:13.266Z,98386.02
2023-09-23T01:08:18.657Z,98385.78
2023-09-23T01:09:24.135Z,98386.56
2023-09-23T01:10:29.486Z,98388.08
2023-09-23T01:11:34.830Z,98376.56
2023-09-23T01:12:40.257Z,98377
2023-09-23T01:13:45.961Z,98373.86
2023-09-23T01:14:51.411Z,98373.25
2023-09-23T01:15:57.414Z,98371.91
2023-09-23T01:17:02.859Z,98372.55
2023-09-23T01:18:08.393Z,98376.05
2023-09-23T01:19:13.769Z,98377.83
2023-09-23T01:20:19.219Z,98375.62
2023-09-23T01:21:24.557Z,98384.58
2023-09-23T01:22:29.878Z,98389.02
2023-09-23T01:23:35.202Z,98386.56
2023-09-23T01:24:40.524Z,98382.05
2023-09-23T01:25:45.962Z,98393.33
2023-09-23T01:26:51.417Z,98389.97
2023-09-23T01:27:56.883Z,98384.58
2023-09-23T01:29:02.319Z,98386.19
2023-09-23T01:30:07.813Z,98376.19
2023-09-23T01:31:13.187Z,98377.7
2023-09-23T01:32:18.677Z,98372.92
2023-09-23T01:33:24.261Z,98374.8
2023-09-23T01:34:29.764Z,98368.84
2023-09-23T01:35:35.074Z,98378.88
2023-09-23T01:36:40.403Z,98381.44
2023-09-23T01:37:45.759Z,98377.4
2023-09-23T01:38:51.292Z,98379.25
2023-09-23T01:39:56.601Z,98380.63
2023-09-23T01:41:01.945Z,98379.09
2023-09-23T01:42:07.673Z,98382.59
2023-09-23T01:43:13.149Z,98393.56
2023-09-23T01:44:18.689Z,98397.11
2023-09-23T01:45:24.053Z,98399.39
2023-09-23T01:46:29.430Z,98396.8
2023-09-23T01:47:35.059Z,98394.72
2023-09-23T01:48:40.824Z,98404.48
2023-09-23T01:49:46.196Z,98404.48
2023-09-23T01:50:51.612Z,98405.43
2023-09-23T01:51:56.911Z,98402.44
2023-09-23T01:53:02.278Z,98399.5
2023-09-23T01:54:07.652Z,98409.47
2023-09-23T01:55:13.083Z,98407.25
2023-09-23T01:56:18.464Z,98422.14
2023-09-23T01:57:23.953Z,98425.64
2023-09-23T01:58:29.273Z,98424.7
2023-09-23T01:59:34.607Z,98432.38
2023-09-23T02:00:39.934Z,98422.95
2023-09-23T02:01:45.359Z,98430.9
2023-09-23T02:02:51.101Z,98434.34
2023-09-23T02:03:56.878Z,98444.04
2023-09-23T02:05:02.402Z,98443.27
2023-09-23T02:06:07.775Z,98434.44
2023-09-23T02:07:13.163Z,98439.22
2023-09-23T02:08:18.820Z,98439.66
2023-09-23T02:09:24.196Z,98436.33
2023-09-23T02:10:29.764Z,98446.09
2023-09-23T02:11:35.178Z,98442.79
2023-09-23T02:12:40.501Z,98438.85
2023-09-23T02:13:45.834Z,98446.16
2023-09-23T02:14:51.182Z,98455.53
2023-09-23T02:15:56.542Z,98452.97
2023-09-23T02:17:02.058Z,98448.45
2023-09-23T02:18:07.646Z,98466.84
2023-09-23T02:19:13.136Z,98465.36
2023-09-23T02:20:18.548Z,98464.42
2023-09-23T02:21:24.230Z,98469
2023-09-23T02:22:29.512Z,98468.9
2023-09-23T02:23:34.798Z,98471.42
2023-09-23T02:24:40.194Z,98465.7
2023-09-23T02:25:45.538Z,98464.45
2023-09-23T02:26:50.933Z,98467.81
2023-09-23T02:27:56.629Z,98471.42
2023-09-23T02:29:02.231Z,98469.3
2023-09-23T02:30:07.653Z,98473.28
2023-09-23T02:31:13.051Z,98472.17
2023-09-23T02:32:18.532Z,98482.04
2023-09-23T02:33:23.923Z,98481.91
2023-09-23T02:34:29.223Z,98479.68
2023-09-23T02:35:34.534Z,98471.73
2023-09-23T02:36:39.874Z,98476.95
2023-09-23T02:37:45.394Z,98480.55
2023-09-23T02:38:50.957Z,98482.84
2023-09-23T02:39:56.283Z,98477.45
2023-09-23T02:41:01.732Z,98469.03
2023-09-23T02:42:07.247Z,98477.25
2023-09-23T02:43:12.617Z,98484.2
2023-09-23T02:44:18.036Z,98486.35
2023-09-23T02:45:23.590Z,98485.64
2023-09-23T02:46:29.154Z,98485.55
2023-09-23T02:47:34.762Z,98489.45
2023-09-23T02:48:40.256Z,98488.77
2023-09-23T02:49:45.646Z,98495.08
2023-09-23T02:50:51.159Z,98507.91
2023-09-23T02:51:56.515Z,98517.48
2023-09-23T02:53:01.905Z,98512.73
2023-09-23T02:54:07.279Z,98521.92
2023-09-23T02:55:12.615Z,98516.13
2023-09-23T02:56:18.055Z,98515.19
2023-09-23T02:57:23.538Z,98507
2023-09-23T02:58:28.850Z,98514.37
2023-09-23T02:59:34.206Z,98513.53
2023-09-23T03:00:39.527Z,98500.66
2023-09-23T03:01:44.918Z,98508.55
2023-09-23T03:02:50.610Z,98509.39
2023-09-23T03:03:56.207Z,98500.97
2023-09-23T03:05:01.864Z,98499.63
2023-09-23T03:06:07.485Z,98505.58
2023-09-23T03:07:12.896Z,98504.23
2023-09-23T03:08:18.254Z,98507.13
2023-09-23T03:09:23.683Z,98522.56
2023-09-23T03:10:29.016Z,98515.85
2023-09-23T03:11:34.328Z,98526.73
2023-09-23T03:12:39.631Z,98536.58
2023-09-23T03:13:44.999Z,98544.77
2023-09-23T03:14:50.430Z,98547.77
2023-09-23T03:15:56.184Z,98550.33
2023-09-23T03:17:01.706Z,98548.17
2023-09-23T03:18:07.122Z,98551.67
2023-09-23T03:19:12.785Z,98543.85
2023-09-23T03:20:18.309Z,98534.42
2023-09-23T03:21:23.739Z,98528.79
2023-09-23T03:22:29.096Z,98532.13
2023-09-23T03:23:34.399Z,98530.08
2023-09-23T03:24:39.752Z,98539.81
2023-09-23T03:25:45.142Z,98540.41
2023-09-23T03:26:50.674Z,98542.67
2023-09-23T03:27:55.977Z,98538.99
2023-09-23T03:29:01.300Z,98552.98
2023-09-23T03:30:06.664Z,98549.58
2023-09-23T03:31:12.333Z,98545.9
2023-09-23T03:32:17.949Z,98555.14
2023-09-23T03:33:23.628Z,98548
2023-09-23T03:34:29.035Z,98547.59
2023-09-23T03:35:34.388Z,98549.47
2023-09-23T03:36:39.752Z,98550.02
2023-09-23T03:37:45.112Z,98549.34
2023-09-23T03:38:50.895Z,98556.48
2023-09-23T03:39:56.269Z,98553.98
2023-09-23T03:41:01.752Z,98569.55
2023-09-23T03:42:07.165Z,98569.62
2023-09-23T03:43:12.490Z,98569.44
2023-09-23T03:44:18.135Z,98576.89
2023-09-23T03:45:23.649Z,98579.22
2023-09-23T03:46:29.064Z,98582.45
2023-09-23T03:47:34.558Z,98569.17
2023-09-23T03:48:39.993Z,98588.78
2023-09-23T03:49:45.330Z,98587.57
2023-09-23T03:50:50.680Z,98583.99
2023-09-23T03:51:56.005Z,98576.66
2023-09-23T03:53:01.401Z,98579.76
2023-09-23T03:54:06.776Z,98563.78
2023-09-23T03:55:12.113Z,98565.17
2023-09-23T03:56:17.644Z,98553.71
2023-09-23T03:57:23.097Z,98560.19
2023-09-23T03:58:28.416Z,98555.23
2023-09-23T03:59:33.732Z,98548.77
2023-09-23T04:00:39.016Z,98557.48
2023-09-23T04:01:44.499Z,98564.32
2023-09-23T04:02:50.365Z,98575.84
2023-09-23T04:03:55.895Z,98584.03
2023-09-23T04:05:01.372Z,98588.91
2023-09-23T04:06:06.754Z,98592.52
2023-09-23T04:07:12.127Z,98590.27
2023-09-23T04:08:17.532Z,98600.1
2023-09-23T04:09:22.892Z,98591.77
2023-09-23T04:10:28.243Z,98597.16
2023-09-23T04:11:33.594Z,98608.07
2023-09-23T04:12:39.009Z,98606.13
2023-09-23T04:13:44.414Z,98614.22
2023-09-23T04:14:49.820Z,98608.29
2023-09-23T04:15:55.254Z,98596.35
2023-09-23T04:17:00.749Z,98596.39
2023-09-23T04:18:06.220Z,98593.96
2023-09-23T04:19:11.692Z,98595.35
2023-09-23T04:20:17.387Z,98592.48
2023-09-23T04:21:22.841Z,98592.25
2023-09-23T04:22:28.242Z,98587.86
2023-09-23T04:23:33.597Z,98588.2
2023-09-23T04:24:41.538Z,98586.55
2023-09-23T04:25:47.033Z,98582.17
2023-09-23T04:26:52.441Z,98583.19
2023-09-23T04:27:57.747Z,98581.4
2023-09-23T04:29:03.187Z,98580.72
2023-09-23T04:30:08.583Z,98578.13
2023-09-23T04:31:13.884Z,98580.22
2023-09-23T04:32:19.426Z,98582.92
2023-09-23T04:33:25.146Z,98583.59
2023-09-23T04:34:30.708Z,98576.31
2023-09-23T04:35:36.073Z,98574.56
2023-09-23T04:36:41.460Z,98571.56
2023-09-23T04:37:47.117Z,98587.09
2023-09-23T04:38:52.538Z,98584.63
2023-09-23T04:39:57.913Z,98594.47
2023-09-23T04:41:03.473Z,98591.91
2023-09-23T04:42:08.845Z,98597.3
2023-09-23T04:43:14.181Z,98594.73
2023-09-23T04:44:19.627Z,98592.77
2023-09-23T04:45:24.987Z,98604.56
2023-09-23T04:46:30.351Z,98609.88
2023-09-23T04:47:35.683Z,98617.63
2023-09-23T04:48:41.024Z,98616.8
2023-09-23T04:49:46.740Z,98618.45
2023-09-23T04:50:52.190Z,98614.41
2023-09-23T04:51:57.538Z,98610.02
2023-09-23T04:53:03.017Z,98611.17
2023-09-23T04:54:08.564Z,98605.97
2023-09-23T04:55:13.990Z,98607.59
2023-09-23T04:56:19.728Z,98612.92
2023-09-23T04:57:25.121Z,98617.09
2023-09-23T04:58:30.457Z,98615.58
2023-09-23T04:59:35.739Z,98608.77
2023-09-23T05:00:41.095Z,98601.76
2023-09-23T05:01:48.410Z,98606.2
2023-09-23T05:02:54.055Z,98604.72
2023-09-23T05:03:59.537Z,98602.47
2023-09-23T05:05:05.253Z,98609.02
2023-09-23T05:06:11.026Z,98607.27
2023-09-23T05:07:16.372Z,98604.8
2023-09-23T05:08:21.757Z,98599.69
2023-09-23T05:09:27.218Z,98601.97
2023-09-23T05:10:32.547Z,98604.49
2023-09-23T05:11:38.216Z,98604.27
2023-09-23T05:12:43.595Z,98616.39
2023-09-23T05:13:48.964Z,98612.3
2023-09-23T05:14:55.763Z,98606.95
2023-09-23T05:16:01.246Z,98615.98
2023-09-23T05:17:06.733Z,98619.41
2023-09-23T05:18:12.302Z,98628.83
2023-09-23T05:19:17.703Z,98642.63
2023-09-23T05:20:23.270Z,98654.34
2023-09-23T05:21:28.668Z,98653.77
2023-09-23T05:22:33.965Z,98652.82
2023-09-23T05:23:39.252Z,98652.59
2023-09-23T05:24:44.564Z,98646.22
2023-09-23T05:25:49.931Z,98650.44
2023-09-23T05:26:55.392Z,98633.17
2023-09-23T05:28:00.699Z,98632.23
2023-09-23T05:29:06.096Z,98628.32
2023-09-23T05:30:11.453Z,98636.45
2023-09-23T05:31:16.930Z,98630.22
2023-09-23T05:32:22.432Z,98634.8
2023-09-23T05:33:27.880Z,98630.2
2023-09-23T05:34:33.205Z,98630.2
2023-09-23T05:35:38.513Z,98635.97
2023-09-23T05:36:43.834Z,98636.37
2023-09-23T05:37:51.194Z,98637.75
2023-09-23T05:38:57.182Z,98643.14
2023-09-23T05:40:02.515Z,98652.02
2023-09-23T05:41:07.969Z,98650.66
2023-09-23T05:42:13.903Z,98648.12
2023-09-23T05:43:19.219Z,98645.83
2023-09-23T05:44:24.595Z,98658.75
2023-09-23T05:45:29.997Z,98666.02
2023-09-23T05:46:35.383Z,98673.56
2023-09-23T05:47:40.959Z,98686.23
2023-09-23T05:48:46.946Z,98682.25
2023-09-23T05:49:52.576Z,98686.96
2023-09-23T05:50:57.956Z,98678.62
2023-09-23T05:52:03.291Z,98683.6
2023-09-23T05:53:08.705Z,98687.77
2023-09-23T05:54:14.229Z,98683.37
2023-09-23T05:55:19.569Z,98686.44
2023-09-23T05:56:25.057Z,98688.72
2023-09-23T05:57:30.459Z,98687.59
2023-09-23T05:58:35.807Z,98688.3
2023-09-23T05:59:41.144Z,98682.8
2023-09-23T06:00:46.524Z,98689.41
2023-09-23T06:01:52.010Z,98683.97
2023-09-23T06:02:57.467Z,98696.08
2023-09-23T06:04:03.043Z,98695.33
2023-09-23T06:05:08.652Z,98692.67
2023-09-23T06:06:14.036Z,98690.25
2023-09-23T06:07:19.527Z,98692.23
2023-09-23T06:08:25.009Z,98699.19
2023-09-23T06:09:30.454Z,98699.14
2023-09-23T06:10:38.141Z,98691.01
2023-09-23T06:11:44.265Z,98702.95
2023-09-23T06:12:49.616Z,98691.83
2023-09-23T06:13:55.146Z,98701.66
2023-09-23T06:15:00.600Z,98702.64
2023-09-23T06:16:05.951Z,98695.95
2023-09-23T06:17:11.544Z,98704.7
2023-09-23T06:18:17.084Z,98707.5
2023-09-23T06:19:22.480Z,98711.03
2023-09-23T06:20:27.931Z,98704.39
2023-09-23T06:21:33.336Z,98687.6
2023-09-23T06:22:38.807Z,98703.59
2023-09-23T06:23:44.198Z,98702.77
2023-09-23T06:24:50.108Z,98701.53
2023-09-23T06:25:55.608Z,98704.53
2023-09-23T06:27:01.256Z,98717.59
2023-09-23T06:28:06.633Z,98727.02
2023-09-23T06:29:12.026Z,98727.08
2023-09-23T06:30:17.442Z,98732.69
2023-09-23T06:31:22.875Z,98744.41
2023-09-23T06:32:28.729Z,98744.41
2023-09-23T06:33:34.361Z,98733.94
2023-09-23T06:34:39.689Z,98742.38
2023-09-23T06:35:45.056Z,98742.38
2023-09-23T06:36:50.369Z,98748.8
2023-09-23T06:37:56.966Z,98746.7
2023-09-23T06:39:04.643Z,98759.58
2023-09-23T06:40:09.977Z,98765.09
2023-09-23T06:41:15.470Z,98769.02
2023-09-23T06:42:20.887Z,98763.8
2023-09-23T06:43:26.237Z,98758.41
2023-09-23T06:44:31.580Z,98755
2023-09-23T06:45:36.894Z,98772.64
2023-09-23T06:46:42.604Z,98765.14
2023-09-23T06:47:48.237Z,98777.73
2023-09-23T06:48:53.789Z,98766.19
2023-09-23T06:49:59.149Z,98771.58
2023-09-23T06:51:04.578Z,98771.53
2023-09-23T06:52:09.912Z,98784.46
2023-09-23T06:53:15.319Z,98778.21
2023-09-23T06:54:20.811Z,98785.94
2023-09-23T06:55:26.167Z,98782.7
2023-09-23T06:56:31.528Z,98783.83
2023-09-23T06:57:36.865Z,98783.52
2023-09-23T06:58:42.229Z,98800.75
2023-09-23T06:59:47.552Z,98803.05
2023-09-23T07:00:52.884Z,98804.62
2023-09-23T07:01:58.423Z,98792.31
2023-09-23T07:03:04.302Z,98806.95
2023-09-23T07:04:10.107Z,98807.89
2023-09-23T07:05:15.802Z,98814.23
2023-09-23T07:06:21.196Z,98813.87
2023-09-23T07:07:26.560Z,98817.02
2023-09-23T07:08:31.959Z,98815.45
2023-09-23T07:09:37.457Z,98821.77
2023-09-23T07:10:42.758Z,98818.8
2023-09-23T07:11:48.081Z,98818.09
2023-09-23T07:12:53.418Z,98819.71
2023-09-23T07:13:58.830Z,98817.78
2023-09-23T07:15:04.285Z,98816.74
2023-09-23T07:16:09.684Z,98820.25
2023-09-23T07:17:15.185Z,98818.77
2023-09-23T07:18:20.688Z,98820.64
2023-09-23T07:19:26.087Z,98825.58
2023-09-23T07:20:31.555Z,98819.61
2023-09-23T07:21:37.008Z,98832.72
2023-09-23T07:22:42.343Z,98828.96
2023-09-23T07:23:48.035Z,98836.13
2023-09-23T07:24:53.643Z,98825.22
2023-09-23T07:25:59.123Z,98844.5
2023-09-23T07:27:04.484Z,98833.36
2023-09-23T07:28:09.853Z,98837.48
2023-09-23T07:29:15.285Z,98829.04
2023-09-23T07:30:20.686Z,98838.92
2023-09-23T07:31:26.020Z,98833.66
2023-09-23T07:32:31.663Z,98830.2
2023-09-23T07:33:37.089Z,98837.17
2023-09-23T07:34:42.461Z,98827.79
2023-09-23T07:35:47.757Z,98833.71
2023-09-23T07:36:53.114Z,98840.27
2023-09-23T07:37:58.626Z,98832.23
2023-09-23T07:39:04.068Z,98826.56
2023-09-23T07:40:09.632Z,98831.78
2023-09-23T07:41:14.968Z,98828.02
2023-09-23T07:42:20.358Z,98830.03
2023-09-23T07:43:25.652Z,98832.31
2023-09-23T07:44:31.049Z,98834.34
2023-09-23T07:45:36.533Z,98825.27
2023-09-23T07:46:41.886Z,98830.75
2023-09-23T07:47:47.352Z,98826.7
2023-09-23T07:48:52.774Z,98817.23
2023-09-23T07:49:58.158Z,98821.59
2023-09-23T07:51:03.575Z,98826.93
2023-09-23T07:52:08.995Z,98823.06
2023-09-23T07:53:14.453Z,98829.09
2023-09-23T07:54:22.224Z,98829.09
2023-09-23T07:55:28.610Z,98829.22
2023-09-23T07:56:34.049Z,98824.99
2023-09-23T07:57:39.432Z,98824.05
2023-09-23T07:58:44.781Z,98829.31
2023-09-23T07:59:50.127Z,98822.58
2023-09-23T08:00:55.444Z,98827.97
2023-09-23T08:02:00.891Z,98824.33
2023-09-23T08:03:06.671Z,98826.52
2023-09-23T08:04:12.279Z,98822.08
2023-09-23T08:05:17.920Z,98825.68
2023-09-23T08:06:23.433Z,98819.25
2023-09-23T08:07:28.739Z,98824.73
2023-09-23T08:08:34.162Z,98836.27
2023-09-23T08:09:39.503Z,98830.96
2023-09-23T08:10:44.814Z,98838.51
2023-09-23T08:11:50.156Z,98834.42
2023-09-23T08:12:55.537Z,98840.75
2023-09-23T08:14:00.998Z,98834.87
2023-09-23T08:15:06.373Z,98838.47
2023-09-23T08:16:11.739Z,98831.91
2023-09-23T08:17:17.164Z,98839.5
2023-09-23T08:18:22.745Z,98840.44
2023-09-23T08:19:28.182Z,98846.59
2023-09-23T08:20:33.636Z,98842.77
2023-09-23T08:21:39.138Z,98845.88
2023-09-23T08:22:44.462Z,98841.73
2023-09-23T08:23:50.309Z,98858.13
2023-09-23T08:24:55.670Z,98855.57
2023-09-23T08:26:01.106Z,98840.57
2023-09-23T08:27:06.745Z,98851.09
2023-09-23T08:28:12.054Z,98847.41
2023-09-23T08:29:17.539Z,98852.25
2023-09-23T08:30:22.958Z,98850.91
2023-09-23T08:31:28.332Z,98848.29
2023-09-23T08:32:33.872Z,98874.12
2023-09-23T08:33:39.477Z,98863.97
2023-09-23T08:34:44.829Z,98864.73
2023-09-23T08:35:50.319Z,98859.84
2023-09-23T08:36:55.647Z,98850.76
2023-09-23T08:38:01.044Z,98854.62
2023-09-23T08:39:06.428Z,98853.5
2023-09-23T08:40:11.775Z,98848.75
2023-09-23T08:41:17.143Z,98854.05
2023-09-23T08:42:22.571Z,98858.75
2023-09-23T08:43:27.909Z,98811.89
2023-09-23T08:44:33.274Z,98860.41
2023-09-23T08:45:38.671Z,98864.38
2023-09-23T08:46:44.096Z,98867.33
2023-09-23T08:47:49.466Z,98875.87
2023-09-23T08:48:54.888Z,98876.58
2023-09-23T08:50:00.423Z,98891.62
2023-09-23T08:51:05.783Z,98893.6
2023-09-23T08:52:11.113Z,98898.05
2023-09-23T08:53:16.648Z,98892.83
2023-09-23T08:54:22.183Z,98901.69
2023-09-23T08:55:28.069Z,98908.05
2023-09-23T08:56:33.442Z,98908.49
2023-09-23T08:57:38.911Z,98906.3
2023-09-23T08:58:44.387Z,98907.64
2023-09-23T08:59:50.143Z,98920.36
2023-09-23T09:00:55.596Z,98916.39
2023-09-23T09:02:01.144Z,98917.83
2023-09-23T09:03:06.640Z,98924.12
2023-09-23T09:04:12.043Z,98903.08
2023-09-23T09:05:17.733Z,98919.02
2023-09-23T09:06:23.227Z,98913.44
2023-09-23T09:07:28.526Z,98914.69
2023-09-23T09:08:33.979Z,98915.63
2023-09-23T09:09:39.456Z,98898.34
2023-09-23T09:10:44.954Z,98915.73
2023-09-23T09:11:50.471Z,98918.02
2023-09-23T09:12:58.840Z,98919.27
2023-09-23T09:14:05.217Z,98916.27
2023-09-23T09:15:10.582Z,98927.03
2023-09-23T09:16:15.951Z,98921.65
2023-09-23T09:17:21.474Z,98921.24
2023-09-23T09:18:26.896Z,98922.19
2023-09-23T09:19:32.230Z,98919.98
2023-09-23T09:20:37.789Z,98920.52
2023-09-23T09:21:43.136Z,98908.79
2023-09-23T09:22:48.452Z,98908.7
2023-09-23T09:23:53.796Z,98914.73
2023-09-23T09:24:59.105Z,98912.57
2023-09-23T09:26:04.494Z,98915.7
2023-09-23T09:27:09.927Z,98906.78
2023-09-23T09:28:15.250Z,98913.07
2023-09-23T09:29:20.676Z,98907.03
2023-09-23T09:30:26.079Z,98911.39
2023-09-23T09:31:31.515Z,98922.5
2023-09-23T09:32:37.177Z,98920.5
2023-09-23T09:33:42.660Z,98916.59
2023-09-23T09:34:48.426Z,98928.64
2023-09-23T09:35:53.846Z,98918.75
2023-09-23T09:36:59.176Z,98915.56
2023-09-23T09:38:18.357Z,98927.42
2023-09-23T09:39:23.864Z,98914.13
2023-09-23T09:40:29.183Z,98921.98
2023-09-23T09:41:34.624Z,98929.3
2023-09-23T09:42:40.036Z,98922.66
2023-09-23T09:43:45.379Z,98927.77
2023-09-23T09:44:50.713Z,98924.89
2023-09-23T09:45:56.035Z,98929.12
2023-09-23T09:47:01.481Z,98916.84
2023-09-23T09:48:07.639Z,98926.02
2023-09-23T09:49:13.057Z,98928.18
2023-09-23T09:50:18.510Z,98920.14
2023-09-23T09:51:23.978Z,98930.47
2023-09-23T09:52:29.313Z,98924.7
2023-09-23T09:53:34.763Z,98930.75
2023-09-23T09:54:40.223Z,98925.48
2023-09-23T09:55:45.638Z,98926.52
2023-09-23T09:56:50.982Z,98916.03
2023-09-23T09:57:56.360Z,98928.4
2023-09-23T09:59:01.906Z,98928.4
2023-09-23T10:00:07.298Z,98925.83
2023-09-23T10:01:12.687Z,98929.62
2023-09-23T10:02:18.533Z,98930.06
2023-09-23T10:03:24.364Z,98929.75
2023-09-23T10:04:29.896Z,98930.97
2023-09-23T10:05:35.284Z,98932.31
2023-09-23T10:06:40.726Z,98936.89
2023-09-23T10:07:46.063Z,98934.85
2023-09-23T10:08:51.640Z,98936.48
2023-09-23T10:09:56.986Z,98931.48
2023-09-23T10:11:02.344Z,98939.39
2023-09-23T10:12:07.821Z,98938.23
2023-09-23T10:13:13.150Z,98937.83
2023-09-23T10:14:18.688Z,98939.58
2023-09-23T10:15:24.223Z,98926.69
2023-09-23T10:16:29.575Z,98938.45
2023-09-23T10:17:35.182Z,98942.18
2023-09-23T10:18:40.922Z,98940.39
2023-09-23T10:19:46.851Z,98940.92
2023-09-23T10:20:52.340Z,98936.2
2023-09-23T10:21:59.349Z,98936.07
2023-09-23T10:23:04.810Z,98935.01
2023-09-23T10:24:10.235Z,98930.16
2023-09-23T10:25:15.540Z,98927.87
2023-09-23T10:26:21.266Z,98929.12
2023-09-23T10:27:26.778Z,98913.75
2023-09-23T10:28:32.073Z,98920.04
2023-09-23T10:29:37.517Z,98921.67
2023-09-23T10:30:42.872Z,98918.56
2023-09-23T10:31:48.278Z,98926.64
2023-09-23T10:32:53.612Z,98917.34
2023-09-23T10:33:59.027Z,98922.08
2023-09-23T10:35:04.376Z,98922.08
2023-09-23T10:36:09.720Z,98920.45
2023-09-23T10:37:15.029Z,98910.89
2023-09-23T10:38:20.430Z,98906.89
2023-09-23T10:39:25.930Z,98910.36
2023-09-23T10:40:31.231Z,98908.2
2023-09-23T10:41:36.810Z,98915.75
2023-09-23T10:42:42.351Z,98921.27
2023-09-23T10:43:47.683Z,98916.41
2023-09-23T10:44:52.988Z,98916.22
2023-09-23T10:45:58.440Z,98918.75
2023-09-23T10:47:03.936Z,98915.12
2023-09-23T10:48:09.668Z,98918.22
2023-09-23T10:49:15.141Z,98919.97
2023-09-23T10:50:20.578Z,98904.1
2023-09-23T10:51:26.009Z,98911.08
2023-09-23T10:52:31.333Z,98914.71
2023-09-23T10:53:36.862Z,98915.75
2023-09-23T10:54:42.740Z,98915.16
2023-09-23T10:55:48.099Z,98917.48
2023-09-23T10:56:53.452Z,98923.05
2023-09-23T10:57:58.771Z,98927.4
2023-09-23T10:59:04.164Z,98928.75
2023-09-23T11:00:09.631Z,98927.4
2023-09-23T11:01:14.947Z,98915.27
2023-09-23T11:02:21.250Z,98917.66
2023-09-23T11:03:27.732Z,98904.71
2023-09-23T11:04:33.596Z,98907.64
2023-09-23T11:05:39.058Z,98905.17
2023-09-23T11:06:44.472Z,98906.34
2023-09-23T11:07:49.919Z,98892.76
2023-09-23T11:08:55.249Z,98891.63
2023-09-23T11:10:00.566Z,98888.94
2023-09-23T11:11:05.990Z,98900.27
2023-09-23T11:12:11.383Z,98904.3
2023-09-23T11:13:16.824Z,98907.22
2023-09-23T11:14:22.283Z,98908.56
2023-09-23T11:15:27.995Z,98908.56
2023-09-23T11:16:33.442Z,98910.07
2023-09-23T11:17:38.905Z,98926.47
2023-09-23T11:18:44.371Z,98921.72
2023-09-23T11:19:50.404Z,98912.95
2023-09-23T11:20:55.737Z,98894.8
2023-09-23T11:22:01.129Z,98896.92
2023-09-23T11:23:06.975Z,98888.72
2023-09-23T11:24:12.448Z,98881.67
2023-09-23T11:25:17.803Z,98870.12
2023-09-23T11:26:23.268Z,98871.53
2023-09-23T11:27:28.588Z,98863.98
2023-09-23T11:28:34.103Z,98867.38
2023-09-23T11:29:39.493Z,98864.74
2023-09-23T11:30:45.089Z,98866.8
2023-09-23T11:31:50.523Z,98873.54
2023-09-23T11:32:56.106Z,98874.17
2023-09-23T11:34:01.679Z,98875.52
2023-09-23T11:35:07.257Z,98874.57
2023-09-23T11:36:12.680Z,98872.01
2023-09-23T11:37:18.023Z,98870.76
2023-09-23T11:38:23.509Z,98874.3
2023-09-23T11:39:28.903Z,98871.41
2023-09-23T11:40:34.323Z,98884.88
2023-09-23T11:41:39.745Z,98885.69
2023-09-23T11:42:45.181Z,98886.85
2023-09-23T11:43:50.705Z,98891.68
2023-09-23T11:44:56.119Z,98890.87
2023-09-23T11:46:03.919Z,98897.59
2023-09-23T11:47:09.576Z,98892.97
2023-09-23T11:48:14.980Z,98892.12
2023-09-23T11:49:20.574Z,98898.81
2023-09-23T11:50:26.299Z,98901.41
2023-09-23T11:51:31.768Z,98893.72
2023-09-23T11:52:37.252Z,98903.61
2023-09-23T11:53:42.717Z,98905.36
2023-09-23T11:54:48.201Z,98915.31
2023-09-23T11:55:53.668Z,98926.61
2023-09-23T11:56:59.002Z,98923.08
2023-09-23T11:58:04.534Z,98921.73
2023-09-23T11:59:10.815Z,98916.78
2023-09-23T12:00:16.702Z,98907.3
2023-09-23T12:01:22.106Z,98917.45
2023-09-23T12:02:27.658Z,98922.58
2023-09-23T12:03:33.358Z,98911.34
2023-09-23T12:04:39.138Z,98912.78
2023-09-23T12:05:44.676Z,98913.19
2023-09-23T12:06:50.053Z,98908.02
2023-09-23T12:07:55.343Z,98907.12
2023-09-23T12:09:00.719Z,98914.13
2023-09-23T12:10:06.034Z,98914.75
2023-09-23T12:11:11.384Z,98913.53
2023-09-23T12:12:16.795Z,98913.13
2023-09-23T12:13:22.126Z,98914
2023-09-23T12:14:27.621Z,98915.66
2023-09-23T12:15:33.245Z,98915.06
2023-09-23T12:16:38.589Z,98902.45
2023-09-23T12:17:44.133Z,98900.39
2023-09-23T12:18:49.720Z,98895.66
2023-09-23T12:19:55.092Z,98907.02
2023-09-23T12:21:00.448Z,98907.02
2023-09-23T12:22:05.782Z,98922.86
2023-09-23T12:23:11.137Z,98918.95
2023-09-23T12:24:16.493Z,98929.5
2023-09-23T12:25:21.860Z,98922.33
2023-09-23T12:26:27.447Z,98926.62
2023-09-23T12:27:32.867Z,98925.36
2023-09-23T12:28:38.202Z,98930.97
2023-09-23T12:29:43.520Z,98918.05
2023-09-23T12:30:48.875Z,98931.19
2023-09-23T12:31:54.217Z,98928.81
2023-09-23T12:32:59.586Z,98932.53
2023-09-23T12:34:05.019Z,98939.48
2023-09-23T12:35:10.518Z,98931.52
2023-09-23T12:36:15.952Z,98941.73
2023-09-23T12:37:21.297Z,98944.7
2023-09-23T12:38:26.711Z,98946.64
2023-09-23T12:39:32.079Z,98939.47
2023-09-23T12:40:37.374Z,98952.02
2023-09-23T12:41:42.835Z,98954.72
2023-09-23T12:42:48.215Z,98954.4
2023-09-23T12:43:53.565Z,98963.69
2023-09-23T12:44:58.932Z,98962.34
2023-09-23T12:46:07.068Z,98971.05
2023-09-23T12:47:12.525Z,98959.86
2023-09-23T12:48:18.022Z,98975.08
2023-09-23T12:49:23.471Z,98976.17
2023-09-23T12:50:29.110Z,98978.86
2023-09-23T12:51:34.513Z,98977.35